Time;durP1;ratioP1;P1;durP2;ratioP2;P2;SDS_P1;SDS_P2;PMS_P1;PMS_P2;Temp;Humidity;BMP_temperature;BMP_pressure;BME280_temperature;BME280_humidity;BME280_pressure;Samples;Min_cycle;Max_cycle;Signal;HPM_P1;HPM_P2
2023/03/18 00:00:08;;;;;;;134.68;82.97;;;102.70;2227.20;;;;;;5053651;28;20079;-81
2023/03/18 00:02:39;;;;;;;123.18;75.72;;;102.80;2227.20;;;;;;5053801;28;20028;-80
2023/03/18 00:05:06;;;;;;;130.32;82.22;;;102.80;2227.20;;;;;;5052770;28;20059;-82
2023/03/18 00:07:34;;;;;;;132.52;82.93;;;102.90;2227.20;;;;;;5053272;28;20036;-81
2023/03/18 00:10:00;;;;;;;119.55;78.35;;;102.90;2227.20;;;;;;5054406;28;20048;-82
2023/03/18 00:12:25;;;;;;;122.25;77.10;;;102.90;2227.20;;;;;;5054604;28;20108;-80
2023/03/18 00:14:52;;;;;;;166.52;96.50;;;102.90;2227.20;;;;;;5052998;28;20049;-81
2023/03/18 00:17:19;;;;;;;88.38;53.60;;;102.80;2227.20;;;;;;5053210;28;20063;-81
2023/03/18 00:19:45;;;;;;;92.63;56.25;;;102.40;2227.20;;;;;;5053127;28;20025;-82
2023/03/18 00:22:11;;;;;;;110.45;68.95;;;102.50;2227.20;;;;;;5053180;28;20029;-81
2023/03/18 00:24:37;;;;;;;90.82;56.50;;;102.80;2227.20;;;;;;5053284;28;20113;-80
2023/03/18 00:27:03;;;;;;;64.32;39.45;;;102.70;2227.20;;;;;;5052853;28;20032;-80
2023/03/18 00:29:29;;;;;;;81.97;52.00;;;102.50;2227.20;;;;;;5054415;28;20029;-79
2023/03/18 00:31:57;;;;;;;81.45;51.90;;;102.60;2227.20;;;;;;5053148;28;20021;-81
2023/03/18 00:34:23;;;;;;;79.97;50.35;;;102.70;2227.20;;;;;;5054045;28;20029;-82
2023/03/18 00:36:55;;;;;;;67.85;41.67;;;102.70;2227.20;;;;;;5054112;28;20029;-82
2023/03/18 00:39:25;;;;;;;66.43;41.65;;;102.40;2227.20;;;;;;5053020;28;20029;-79
2023/03/18 00:41:53;;;;;;;92.25;56.47;;;102.60;2227.20;;;;;;5054104;28;20057;-80
2023/03/18 00:44:19;;;;;;;90.13;54.10;;;102.60;2227.20;;;;;;5052796;28;20031;-81
2023/03/18 00:46:45;;;;;;;83.70;51.22;;;102.40;2227.20;;;;;;5053888;28;20099;-81
2023/03/18 00:49:11;;;;;;;71.20;45.17;;;102.40;2227.20;;;;;;5054254;28;20032;-82
2023/03/18 00:51:40;;;;;;;83.22;50.13;;;102.40;2227.20;;;;;;5053784;28;20050;-81
2023/03/18 00:54:08;;;;;;;142.23;79.90;;;102.40;2227.20;;;;;;5052775;28;20082;-81
2023/03/18 00:56:36;;;;;;;77.80;48.08;;;102.40;2227.20;;;;;;5053858;28;20025;-80
2023/03/18 00:59:03;;;;;;;87.75;51.78;;;77.60;2227.20;;;;;;5052615;28;20029;-81
2023/03/18 01:01:30;;;;;;;96.55;57.83;;;77.70;2227.20;;;;;;5052971;28;20391;-80
2023/03/18 01:03:56;;;;;;;91.55;55.33;;;102.40;2227.20;;;;;;5053734;28;20025;-80
2023/03/18 01:06:25;;;;;;;107.05;59.03;;;102.40;2227.20;;;;;;5052533;28;20453;-81
2023/03/18 01:08:51;;;;;;;92.95;53.88;;;102.40;2227.20;;;;;;5052515;28;20032;-81
2023/03/18 01:11:17;;;;;;;90.93;55.25;;;102.50;2227.20;;;;;;5053221;28;20132;-79
2023/03/18 01:13:44;;;;;;;93.82;56.95;;;102.40;2227.20;;;;;;5052465;28;20039;-81
2023/03/18 01:16:10;;;;;;;81.00;51.70;;;102.60;2227.20;;;;;;5052386;28;20025;-81
2023/03/18 01:18:37;;;;;;;72.53;44.83;;;102.60;2227.20;;;;;;5060054;28;20043;-80
2023/03/18 01:21:03;;;;;;;68.38;46.65;;;102.60;2227.20;;;;;;5059035;28;20111;-79
2023/03/18 01:23:29;;;;;;;81.63;50.00;;;102.50;2227.20;;;;;;5058674;28;20063;-79
2023/03/18 01:25:56;;;;;;;95.90;57.63;;;102.40;2227.20;;;;;;5058892;28;20032;-79
2023/03/18 01:28:22;;;;;;;90.03;55.97;;;102.40;2227.20;;;;;;5045965;28;20060;-80
2023/03/18 01:30:49;;;;;;;79.28;49.33;;;77.70;2227.20;;;;;;5038768;28;20061;-82
2023/03/18 01:33:16;;;;;;;78.07;50.67;;;102.40;2227.20;;;;;;5038228;28;20430;-80
2023/03/18 01:35:42;;;;;;;84.78;52.47;;;102.40;2227.20;;;;;;5040019;28;20065;-81
2023/03/18 01:38:10;;;;;;;81.30;51.05;;;102.40;2227.20;;;;;;5039243;28;20033;-82
2023/03/18 01:40:39;;;;;;;76.82;48.55;;;102.40;2227.20;;;;;;5038769;28;20523;-80
2023/03/18 01:43:17;;;;;;;87.07;49.72;;;102.50;2227.20;;;;;;5055426;28;20079;-82
2023/03/18 01:45:55;;;;;;;72.13;44.25;;;102.60;2227.20;;;;;;5040187;28;20106;-80
2023/03/18 01:48:24;;;;;;;44.72;29.08;;;102.50;2227.20;;;;;;5040451;28;20083;-80
2023/03/18 01:50:58;;;;;;;47.13;29.33;;;77.50;2227.20;;;;;;5038759;28;20392;-81
2023/03/18 01:53:29;;;;;;;40.65;26.50;;;77.40;2227.20;;;;;;5040064;28;20056;-78
2023/03/18 01:55:56;;;;;;;42.63;25.92;;;77.50;2227.20;;;;;;5039023;28;20057;-81
2023/03/18 01:58:30;;;;;;;42.40;28.08;;;77.60;2227.20;;;;;;5038696;28;20033;-82
2023/03/18 02:01:02;;;;;;;60.58;36.90;;;77.70;2227.20;;;;;;5038880;28;20021;-81
2023/03/18 02:03:28;;;;;;;95.90;62.05;;;77.70;2227.20;;;;;;5038881;28;20025;-81
2023/03/18 02:05:54;;;;;;;58.67;38.00;;;77.30;2227.20;;;;;;5038979;28;20036;-83
2023/03/18 02:08:20;;;;;;;61.10;41.13;;;77.30;2227.20;;;;;;5038777;28;20048;-82
2023/03/18 02:10:47;;;;;;;47.20;32.75;;;77.10;2227.20;;;;;;5038381;28;20087;-81
2023/03/18 02:13:14;;;;;;;55.35;35.55;;;77.30;2227.20;;;;;;5038760;28;20087;-82
2023/03/18 02:16:00;;;;;;;71.10;43.80;;;77.20;2227.20;;;;;;5038492;28;20029;-80
2023/03/18 02:18:50;;;;;;;59.92;34.50;;;76.90;2227.20;;;;;;5038756;28;20057;-83
2023/03/18 02:21:41;;;;;;;51.53;33.72;;;77.00;2227.20;;;;;;5038861;28;20036;-81
2023/03/18 02:24:22;;;;;;;48.83;31.02;;;77.10;2227.20;;;;;;5038635;28;20107;-83
2023/03/18 02:27:00;;;;;;;42.17;28.20;;;77.00;2227.20;;;;;;5038824;28;20025;-82
2023/03/18 02:29:30;;;;;;;35.50;21.75;;;76.90;2227.20;;;;;;5036801;28;20040;-83
2023/03/18 02:31:57;;;;;;;29.25;20.75;;;77.00;2227.20;;;;;;5035449;28;20029;-83
2023/03/18 02:34:24;;;;;;;34.90;24.70;;;77.10;2227.20;;;;;;5035307;28;20377;-81
2023/03/18 02:36:50;;;;;;;42.33;24.90;;;77.10;2227.20;;;;;;5035639;28;20033;-81
2023/03/18 02:39:16;;;;;;;42.30;27.88;;;77.10;2227.20;;;;;;5035254;28;20057;-80
2023/03/18 02:41:43;;;;;;;58.88;37.47;;;77.10;2227.20;;;;;;5035175;28;20465;-81
2023/03/18 02:44:11;;;;;;;66.28;42.33;;;77.20;2227.20;;;;;;5035097;28;20035;-82
2023/03/18 02:46:48;;;;;;;82.32;46.85;;;77.20;2227.20;;;;;;5035055;28;20026;-78
2023/03/18 02:49:16;;;;;;;111.43;60.38;;;77.20;2227.20;;;;;;5036286;28;20022;-81
2023/03/18 02:51:42;;;;;;;98.30;51.13;;;77.30;2227.20;;;;;;5033548;28;20079;-81
2023/03/18 02:54:17;;;;;;;72.38;43.28;;;77.30;2227.20;;;;;;5035732;28;20041;-81
2023/03/18 02:56:43;;;;;;;58.63;36.45;;;77.40;2227.20;;;;;;5034711;28;20033;-82
2023/03/18 02:59:10;;;;;;;61.47;35.65;;;77.40;2227.20;;;;;;5036217;28;20036;-84
2023/03/18 03:01:38;;;;;;;64.20;40.28;;;77.40;2227.20;;;;;;5034973;28;20049;-82
2023/03/18 03:04:06;;;;;;;54.97;34.53;;;77.20;2227.20;;;;;;5051175;28;20025;-81
2023/03/18 03:06:32;;;;;;;59.85;33.53;;;77.40;2227.20;;;;;;5034596;28;20025;-81
2023/03/18 03:08:59;;;;;;;56.70;35.53;;;77.20;2227.20;;;;;;5034888;28;20362;-82
2023/03/18 03:11:26;;;;;;;55.13;34.35;;;77.00;2227.20;;;;;;5034627;28;20052;-81
2023/03/18 03:13:52;;;;;;;48.40;29.42;;;77.20;2227.20;;;;;;5034331;28;20056;-81
2023/03/18 03:16:19;;;;;;;52.53;32.60;;;77.40;2227.20;;;;;;5035879;28;20029;-80
2023/03/18 03:18:45;;;;;;;52.45;34.42;;;77.40;2227.20;;;;;;5036063;28;20095;-81
2023/03/18 03:21:12;;;;;;;66.00;37.38;;;77.30;2227.20;;;;;;5034399;28;20025;-81
2023/03/18 03:23:38;;;;;;;68.75;39.78;;;77.20;2227.20;;;;;;5034649;28;20064;-82
2023/03/18 03:26:05;;;;;;;74.45;40.80;;;77.10;2227.20;;;;;;5034441;28;20120;-84
2023/03/18 03:28:32;;;;;;;104.80;48.70;;;77.10;2227.20;;;;;;5034088;28;20068;-82
2023/03/18 03:30:59;;;;;;;71.60;38.40;;;76.90;2227.20;;;;;;5033945;28;20029;-81
2023/03/18 03:33:26;;;;;;;43.58;27.10;;;77.00;2227.20;;;;;;5034738;28;20029;-82
2023/03/18 03:35:53;;;;;;;46.35;29.60;;;76.90;2227.20;;;;;;5034189;28;20029;-82
2023/03/18 03:38:18;;;;;;;43.95;28.92;;;76.80;2227.20;;;;;;5034257;28;20033;-81
2023/03/18 03:40:45;;;;;;;46.55;27.70;;;52.00;2227.20;;;;;;5032993;28;20030;-79
2023/03/18 03:43:14;;;;;;;48.47;27.58;;;52.00;2227.20;;;;;;5035191;28;20021;-81
2023/03/18 03:45:42;;;;;;;52.25;30.25;;;76.80;2227.20;;;;;;5033984;28;20029;-79
2023/03/18 03:48:08;;;;;;;48.05;29.65;;;52.00;2227.20;;;;;;5034327;28;20122;-82
2023/03/18 03:50:35;;;;;;;39.80;24.77;;;52.00;2227.20;;;;;;5034957;28;20052;-80
2023/03/18 03:53:03;;;;;;;38.90;25.38;;;76.80;2227.20;;;;;;5033913;28;20412;-80
2023/03/18 03:55:29;;;;;;;41.65;25.00;;;76.80;2227.20;;;;;;5033618;28;20112;-82
2023/03/18 03:57:55;;;;;;;40.80;24.73;;;76.90;2227.20;;;;;;5033821;28;20473;-82
2023/03/18 04:00:23;;;;;;;38.83;24.75;;;76.90;2227.20;;;;;;5033750;28;20049;-81
2023/03/18 04:02:50;;;;;;;44.80;26.40;;;52.10;2227.20;;;;;;5034827;28;20022;-80
2023/03/18 04:05:17;;;;;;;48.70;28.77;;;51.60;2227.20;;;;;;5033578;28;20460;-80
2023/03/18 04:07:44;;;;;;;46.92;30.35;;;51.80;2227.20;;;;;;5033775;28;20104;-80
2023/03/18 04:10:12;;;;;;;46.72;28.75;;;51.70;2227.20;;;;;;5033178;28;20500;-80
2023/03/18 04:12:38;;;;;;;44.40;27.45;;;51.80;2227.20;;;;;;5033707;28;20416;-81
2023/03/18 04:15:05;;;;;;;46.28;28.30;;;52.00;2227.20;;;;;;5043026;28;20029;-80
2023/03/18 04:17:33;;;;;;;62.78;32.28;;;52.10;2227.20;;;;;;5054027;28;20435;-81
2023/03/18 04:19:59;;;;;;;56.95;32.17;;;52.10;2227.20;;;;;;5053000;28;20059;-80
2023/03/18 04:22:25;;;;;;;44.72;27.42;;;76.80;2227.20;;;;;;5053209;28;20064;-78
2023/03/18 04:24:51;;;;;;;38.47;24.63;;;51.80;2227.20;;;;;;5054523;28;20033;-80
2023/03/18 04:27:17;;;;;;;38.13;24.02;;;51.90;2227.20;;;;;;5053123;28;20033;-81
2023/03/18 04:29:43;;;;;;;37.67;23.45;;;51.50;2227.20;;;;;;5054029;28;20035;-79
2023/03/18 04:32:10;;;;;;;44.80;24.25;;;51.60;2227.20;;;;;;5052934;28;20151;-82
2023/03/18 04:34:36;;;;;;;38.13;20.90;;;51.80;2227.20;;;;;;5052968;28;20127;-80
2023/03/18 04:37:02;;;;;;;32.42;20.90;;;51.90;2227.20;;;;;;5054373;28;20536;-83
2023/03/18 04:39:29;;;;;;;39.70;23.08;;;51.60;2227.20;;;;;;5052895;28;20025;-80
2023/03/18 04:41:55;;;;;;;49.85;27.58;;;51.80;2227.20;;;;;;5054218;28;20025;-82
2023/03/18 04:44:23;;;;;;;47.85;30.02;;;51.70;2227.20;;;;;;5052866;28;20025;-81
2023/03/18 04:46:49;;;;;;;38.63;26.60;;;51.50;2227.20;;;;;;5052839;28;20032;-80
2023/03/18 04:49:14;;;;;;;39.72;25.15;;;51.30;2227.20;;;;;;5052957;28;20037;-81
2023/03/18 04:51:41;;;;;;;45.05;27.55;;;51.50;2227.20;;;;;;5031347;28;20053;-81
2023/03/18 04:54:07;;;;;;;43.60;27.05;;;51.40;2227.20;;;;;;5033723;28;20032;-77
2023/03/18 04:56:33;;;;;;;47.97;29.30;;;26.50;2201.60;;;;;;5032384;28;20029;-82
2023/03/18 04:58:59;;;;;;;44.60;27.10;;;51.60;2227.20;;;;;;5043427;28;20044;-81
2023/03/18 05:01:25;;;;;;;45.80;27.38;;;51.50;2227.20;;;;;;5052618;28;20123;-81
2023/03/18 05:03:51;;;;;;;48.40;30.42;;;51.20;2227.20;;;;;;5060004;28;20025;-78
2023/03/18 05:06:23;;;;;;;50.45;30.92;;;26.40;2201.60;;;;;;5076890;28;20103;-78
2023/03/18 05:08:50;;;;;;;50.87;33.03;;;26.40;2201.60;;;;;;5077768;28;20009;-78
2023/03/18 05:11:16;;;;;;;61.22;37.67;;;51.40;2227.20;;;;;;5069315;28;20049;-80
2023/03/18 05:13:42;;;;;;;67.50;45.33;;;26.40;2201.60;;;;;;5053207;28;20437;-81
2023/03/18 05:16:08;;;;;;;61.42;42.22;;;26.20;2201.60;;;;;;5054757;28;20108;-81
2023/03/18 05:18:35;;;;;;;51.80;33.28;;;26.30;2201.60;;;;;;5057520;28;20025;-82
2023/03/18 05:21:02;;;;;;;41.35;26.02;;;26.50;2201.60;;;;;;5053476;28;20033;-81
2023/03/18 05:23:28;;;;;;;73.95;42.53;;;51.60;2227.20;;;;;;5053792;28;20029;-80
2023/03/18 05:25:54;;;;;;;85.55;48.63;;;51.20;2227.20;;;;;;5053444;28;20051;-83
2023/03/18 05:28:20;;;;;;;61.30;37.60;;;26.30;2201.60;;;;;;5052409;28;20052;-81
2023/03/18 05:30:46;;;;;;;68.57;37.80;;;51.30;2227.20;;;;;;5052382;28;20500;-82
2023/03/18 05:33:12;;;;;;;104.97;64.50;;;26.50;2201.60;;;;;;5053468;28;20029;-80
2023/03/18 05:35:38;;;;;;;86.07;49.88;;;51.20;2227.20;;;;;;5052182;28;20032;-83
2023/03/18 05:38:06;;;;;;;86.82;47.53;;;26.40;2201.60;;;;;;5052288;28;20536;-83
2023/03/18 05:40:32;;;;;;;119.63;59.00;;;26.50;2201.60;;;;;;5052205;28;20477;-80
2023/03/18 05:42:58;;;;;;;102.88;54.80;;;26.30;2201.60;;;;;;5052365;28;20029;-81
2023/03/18 05:45:24;;;;;;;89.93;49.33;;;26.50;2201.60;;;;;;5052177;28;20029;-79
2023/03/18 05:47:50;;;;;;;77.97;45.53;;;26.30;2201.60;;;;;;5052181;28;20029;-81
2023/03/18 05:50:37;;;;;;;68.18;38.88;;;26.10;2201.60;;;;;;5053632;28;20029;-79
2023/03/18 05:53:04;;;;;;;59.05;35.55;;;26.20;2201.60;;;;;;5052178;28;20045;-82
2023/03/18 05:55:31;;;;;;;54.20;30.88;;;51.30;2227.20;;;;;;5052034;28;20025;-82
2023/03/18 05:57:57;;;;;;;47.90;29.90;;;51.30;2227.20;;;;;;5052132;28;20033;-80
2023/03/18 06:00:23;;;;;;;52.13;30.90;;;26.20;2201.60;;;;;;5052168;28;20033;-81
2023/03/18 06:02:51;;;;;;;57.63;36.00;;;26.20;2201.60;;;;;;5052788;28;20388;-78
2023/03/18 06:05:17;;;;;;;57.53;36.63;;;26.20;2201.60;;;;;;5055222;28;20453;-81
2023/03/18 06:07:44;;;;;;;99.43;55.63;;;26.50;2201.60;;;;;;5055858;28;20153;-80
2023/03/18 06:10:11;;;;;;;105.82;63.15;;;26.50;2201.60;;;;;;5055409;28;20128;-83
2023/03/18 06:12:38;;;;;;;101.78;61.13;;;51.50;2227.20;;;;;;5055806;28;20469;-81
2023/03/18 06:15:07;;;;;;;67.25;41.55;;;51.50;2227.20;;;;;;5055778;28;20029;-81
2023/03/18 06:17:32;;;;;;;63.63;39.88;;;51.70;2227.20;;;;;;5055481;28;20115;-83
2023/03/18 06:19:59;;;;;;;58.10;36.63;;;51.80;2227.20;;;;;;5055648;28;20061;-80
2023/03/18 06:22:25;;;;;;;62.20;42.60;;;51.90;2227.20;;;;;;5055452;28;20148;-78
2023/03/18 06:24:52;;;;;;;55.35;32.88;;;51.60;2227.20;;;;;;5055761;28;20029;-82
2023/03/18 06:27:18;;;;;;;63.55;39.60;;;51.70;2227.20;;;;;;5054564;28;20033;-81
2023/03/18 06:29:44;;;;;;;66.43;40.45;;;51.70;2227.20;;;;;;5054531;28;20061;-82
2023/03/18 06:32:10;;;;;;;54.65;31.15;;;76.80;2227.20;;;;;;5054397;28;20055;-82
2023/03/18 06:34:35;;;;;;;55.00;33.03;;;76.90;2227.20;;;;;;5055507;28;20366;-80
2023/03/18 06:37:02;;;;;;;50.63;32.47;;;77.00;2227.20;;;;;;5056265;28;20036;-82
2023/03/18 06:39:28;;;;;;;43.15;27.20;;;77.20;2227.20;;;;;;5055398;28;20024;-81
2023/03/18 06:41:54;;;;;;;40.22;25.73;;;77.30;2227.20;;;;;;5056451;28;20025;-83
2023/03/18 06:44:21;;;;;;;52.55;32.15;;;77.30;2227.20;;;;;;5054745;28;20036;-79
2023/03/18 06:46:47;;;;;;;45.28;29.23;;;77.20;2227.20;;;;;;5055074;28;20032;-82
2023/03/18 06:49:13;;;;;;;46.78;31.40;;;77.40;2227.20;;;;;;5055823;28;20423;-80
2023/03/18 06:51:40;;;;;;;51.72;35.72;;;77.40;2227.20;;;;;;5054747;28;20025;-79
2023/03/18 06:54:06;;;;;;;43.22;30.42;;;77.60;2227.20;;;;;;5054954;28;20057;-84
2023/03/18 06:56:37;;;;;;;39.70;28.88;;;77.60;2227.20;;;;;;5055011;28;20036;-81
2023/03/18 06:59:04;;;;;;;43.67;28.27;;;77.60;2227.20;;;;;;5054827;28;20025;-78
2023/03/18 07:01:31;;;;;;;41.50;28.08;;;77.70;2227.20;;;;;;5054728;28;20381;-82
2023/03/18 07:03:59;;;;;;;42.33;29.35;;;102.60;2227.20;;;;;;5054978;28;20025;-81
2023/03/18 07:06:26;;;;;;;33.42;22.98;;;102.40;2227.20;;;;;;5054675;28;20029;-81
2023/03/18 07:08:53;;;;;;;58.65;40.35;;;102.40;2227.20;;;;;;5055072;28;20029;-82
2023/03/18 07:11:19;;;;;;;69.65;48.45;;;102.50;2227.20;;;;;;5054708;28;20063;-82
2023/03/18 07:13:45;;;;;;;56.28;35.80;;;102.60;2227.20;;;;;;5054815;28;20025;-81
2023/03/18 07:16:10;;;;;;;68.70;45.03;;;102.70;2227.20;;;;;;5054116;28;20029;-81
2023/03/18 07:18:36;;;;;;;66.97;44.00;;;102.80;2227.20;;;;;;5055731;28;20492;-83
2023/03/18 07:21:03;;;;;;;45.60;30.70;;;102.90;2227.20;;;;;;5054570;28;20025;-81
2023/03/18 07:23:29;;;;;;;56.38;37.10;;;103.10;2227.20;;;;;;5055829;28;20079;-81
2023/03/18 07:25:55;;;;;;;36.53;25.98;;;103.10;2227.20;;;;;;5054538;28;20420;-80
2023/03/18 07:28:20;;;;;;;37.80;23.83;;;103.10;2227.20;;;;;;5054559;28;20021;-80
2023/03/18 07:30:46;;;;;;;38.80;24.77;;;103.10;2227.20;;;;;;5054238;28;20032;-81
2023/03/18 07:33:13;;;;;;;38.47;23.65;;;103.20;2227.20;;;;;;5054281;28;20025;-80
2023/03/18 07:35:40;;;;;;;34.50;24.73;;;128.10;2252.80;;;;;;5054177;28;20065;-80
2023/03/18 07:38:07;;;;;;;37.72;25.33;;;128.00;2252.80;;;;;;5053748;28;20021;-80
2023/03/18 07:40:33;;;;;;;30.70;21.65;;;128.10;2252.80;;;;;;5054042;28;20029;-81
2023/03/18 07:42:59;;;;;;;32.35;22.30;;;128.20;2252.80;;;;;;5054008;28;20029;-80
2023/03/18 07:45:25;;;;;;;37.58;25.70;;;128.30;2252.80;;;;;;5054040;28;20189;-80
2023/03/18 07:47:52;;;;;;;50.75;34.33;;;128.40;2252.80;;;;;;5055262;28;20116;-81
2023/03/18 07:50:17;;;;;;;47.30;33.40;;;128.50;2252.80;;;;;;5053901;28;20662;-82
2023/03/18 07:52:43;;;;;;;43.03;31.58;;;128.70;2252.80;;;;;;5053878;28;20112;-78
2023/03/18 07:55:10;;;;;;;41.72;28.50;;;128.80;2252.80;;;;;;5055314;28;20104;-80
2023/03/18 07:57:37;;;;;;;38.55;26.48;;;128.80;2252.80;;;;;;5051829;28;20477;-80
2023/03/18 08:00:07;;;;;;;28.05;19.17;;;128.90;2252.80;;;;;;5066518;28;20076;-79
2023/03/18 08:02:34;;;;;;;34.22;21.08;;;153.70;2252.80;;;;;;5032972;28;20021;-79
2023/03/18 08:05:02;;;;;;;75.45;46.38;;;153.70;2252.80;;;;;;5034854;28;20032;-79
2023/03/18 08:07:28;;;;;;;76.18;51.50;;;153.80;2252.80;;;;;;5066530;28;20048;-79
2023/03/18 08:09:54;;;;;;;40.13;28.35;;;154.00;2252.80;;;;;;5066389;28;20057;-79
2023/03/18 08:12:20;;;;;;;36.78;26.40;;;154.10;2252.80;;;;;;5066790;28;20116;-78
2023/03/18 08:14:47;;;;;;;42.78;29.75;;;154.30;2252.80;;;;;;5066583;28;20128;-79
2023/03/18 08:17:13;;;;;;;38.25;27.40;;;154.30;2252.80;;;;;;5066557;28;20033;-78
2023/03/18 08:19:39;;;;;;;33.53;24.33;;;154.40;2252.80;;;;;;5066498;28;20021;-78
2023/03/18 08:22:04;;;;;;;34.75;24.63;;;154.50;2252.80;;;;;;5066372;28;20480;-77
2023/03/18 08:24:31;;;;;;;30.80;22.95;;;154.50;2252.80;;;;;;5067552;28;20036;-77
2023/03/18 08:26:57;;;;;;;28.45;20.73;;;179.30;2252.80;;;;;;5066117;28;20076;-80
2023/03/18 08:29:23;;;;;;;47.88;36.67;;;179.40;2252.80;;;;;;5032652;28;20030;-78
2023/03/18 08:31:48;;;;;;;34.17;24.83;;;179.50;2252.80;;;;;;5066097;28;20086;-80
2023/03/18 08:34:14;;;;;;;29.58;20.40;;;179.60;2252.80;;;;;;5066007;28;20103;-76
2023/03/18 08:36:41;;;;;;;26.92;19.25;;;179.70;2252.80;;;;;;5033982;28;20492;-80
2023/03/18 08:39:08;;;;;;;24.02;17.42;;;179.70;2252.80;;;;;;5066079;28;20482;-80
2023/03/18 08:41:34;;;;;;;24.88;17.88;;;179.70;2252.80;;;;;;5065559;28;20120;-80
2023/03/18 08:44:02;;;;;;;25.52;18.23;;;180.00;2252.80;;;;;;5065929;28;20025;-79
2023/03/18 08:46:28;;;;;;;25.38;18.00;;;180.00;2252.80;;;;;;5032673;28;20055;-78
2023/03/18 08:48:54;;;;;;;19.98;16.30;;;180.10;2252.80;;;;;;5034034;28;20025;-80
2023/03/18 08:51:21;;;;;;;25.23;17.80;;;204.80;2252.80;;;;;;5065683;28;20032;-80
2023/03/18 08:53:47;;;;;;;24.05;16.67;;;204.80;2252.80;;;;;;5065811;28;20493;-78
2023/03/18 08:56:14;;;;;;;20.20;16.02;;;204.90;2252.80;;;;;;5065846;28;20029;-81
2023/03/18 08:58:40;;;;;;;22.75;15.80;;;205.00;2252.80;;;;;;5065575;28;20120;-81
2023/03/18 09:01:06;;;;;;;21.08;13.85;;;205.20;2252.80;;;;;;5065923;28;20354;-82
2023/03/18 09:03:33;;;;;;;23.63;16.08;;;205.30;2252.80;;;;;;5065679;28;20029;-80
2023/03/18 09:05:59;;;;;;;18.98;12.27;;;205.40;2252.80;;;;;;5065558;28;20060;-80
2023/03/18 09:08:25;;;;;;;15.80;10.80;;;205.70;2252.80;;;;;;5065696;28;20076;-79
2023/03/18 09:10:55;;;;;;;18.35;11.50;;;205.70;2252.80;;;;;;5065498;28;20061;-83
2023/03/18 09:13:21;;;;;;;12.00;7.80;;;230.50;2252.80;;;;;;5065621;28;20048;-79
2023/03/18 09:15:47;;;;;;;11.55;7.93;;;230.70;2252.80;;;;;;5032113;28;20029;-80
2023/03/18 09:18:14;;;;;;;12.15;7.75;;;230.90;2252.80;;;;;;5033424;28;20396;-78
2023/03/18 09:20:41;;;;;;;9.60;6.45;;;230.90;2252.80;;;;;;5033639;28;20104;-79
2023/03/18 09:23:08;;;;;;;12.20;8.05;;;231.00;2252.80;;;;;;5033817;28;20029;-80
2023/03/18 09:25:34;;;;;;;12.75;8.93;;;231.10;2252.80;;;;;;5032185;28;20127;-78
2023/03/18 09:28:00;;;;;;;10.55;7.47;;;231.20;2252.80;;;;;;5033549;28;20120;-80
2023/03/18 09:30:26;;;;;;;32.50;8.90;;;231.20;2252.80;;;;;;5032447;28;20061;-80
2023/03/18 09:32:53;;;;;;;23.15;15.98;;;231.10;2252.80;;;;;;5032066;28;20035;-80
2023/03/18 09:35:19;;;;;;;13.20;8.80;;;231.20;2252.80;;;;;;5065315;28;20036;-78
2023/03/18 09:37:45;;;;;;;9.93;7.35;;;231.30;2252.80;;;;;;5033239;28;20489;-80
2023/03/18 09:40:29;;;;;;;11.88;8.00;;;256.00;2252.80;;;;;;5036087;28;20037;-79
2023/03/18 09:43:04;;;;;;;11.90;6.75;;;231.30;2252.80;;;;;;5042771;28;20033;-79
2023/03/18 09:45:45;;;;;;;11.25;8.25;;;256.20;2252.80;;;;;;5054658;28;20044;-78
2023/03/18 09:48:44;;;;;;;18.17;8.43;;;256.40;2252.80;;;;;;5068940;28;20066;-79
2023/03/18 09:51:28;;;;;;;15.88;10.50;;;256.40;2252.80;;;;;;5040256;28;20082;-78
2023/03/18 09:54:02;;;;;;;12.10;8.20;;;256.50;2252.80;;;;;;5060933;28;20028;-78
2023/03/18 09:56:33;;;;;;;10.90;7.20;;;256.50;2252.80;;;;;;5056263;28;20029;-80
2023/03/18 09:59:05;;;;;;;13.75;7.57;;;256.80;2252.80;;;;;;5071911;28;20524;-80
2023/03/18 10:01:35;;;;;;;12.57;8.57;;;281.60;2278.40;;;;;;5055210;28;20025;-80
2023/03/18 10:04:20;;;;;;;13.57;8.77;;;256.90;2252.80;;;;;;5066780;28;20102;-79
2023/03/18 10:06:51;;;;;;;10.82;7.00;;;281.70;2278.40;;;;;;5058849;28;20484;-78
2023/03/18 10:09:31;;;;;;;10.43;6.95;;;282.00;2278.40;;;;;;5069798;28;20116;-78
2023/03/18 10:12:13;;;;;;;11.38;6.95;;;282.10;2278.40;;;;;;5055192;28;20063;-78
2023/03/18 10:14:43;;;;;;;13.18;7.32;;;282.10;2278.40;;;;;;5061544;28;20022;-78
2023/03/18 10:17:29;;;;;;;10.82;7.78;;;282.10;2278.40;;;;;;5071086;28;20025;-80
2023/03/18 10:19:59;;;;;;;10.20;7.30;;;282.10;2278.40;;;;;;5065485;28;20108;-79
2023/03/18 10:22:53;;;;;;;15.60;7.05;;;282.20;2278.40;;;;;;5060330;28;20025;-77
2023/03/18 10:25:40;;;;;;;8.93;6.57;;;282.20;2278.40;;;;;;5046260;28;20464;-77
2023/03/18 10:28:09;;;;;;;12.15;7.25;;;282.10;2278.40;;;;;;5062401;28;20039;-78
2023/03/18 10:30:37;;;;;;;11.35;6.60;;;282.40;2278.40;;;;;;5070611;28;20469;-78
2023/03/18 10:33:24;;;;;;;8.32;6.22;;;282.50;2278.40;;;;;;5058167;28;20099;-78
2023/03/18 10:35:58;;;;;;;8.40;5.25;;;307.30;2304.00;;;;;;5064590;28;20039;-77
2023/03/18 10:38:37;;;;;;;5.75;4.10;;;307.50;2252.80;;;;;;5054861;28;20061;-79
2023/03/18 10:41:28;;;;;;;9.20;5.97;;;307.80;2201.60;;;;;;5071187;28;20020;-77
2023/03/18 10:43:56;;;;;;;10.77;6.43;;;307.60;2252.80;;;;;;5065081;28;20029;-78
2023/03/18 10:46:24;;;;;;;5.07;3.80;;;307.70;2227.20;;;;;;5061576;28;20025;-78
2023/03/18 10:48:59;;;;;;;29.10;20.92;;;307.80;2150.40;;;;;;5070892;28;20432;-77
2023/03/18 10:51:34;;;;;;;17.05;11.77;;;;;;;;;;5060765;28;20024;-77
2023/03/18 10:54:21;;;;;;;12.32;8.43;;;332.80;2150.40;;;;;;5063192;28;20035;-78
2023/03/18 10:56:47;;;;;;;10.15;6.93;;;333.00;2124.80;;;;;;5070669;28;20039;-80
2023/03/18 10:59:16;;;;;;;14.55;10.00;;;333.10;2073.60;;;;;;5057647;28;20033;-78
2023/03/18 11:01:46;;;;;;;6.03;4.45;;;333.20;2048.00;;;;;;5065191;28;20035;-78
2023/03/18 11:04:13;;;;;;;5.38;3.80;;;;;;;;;;5067249;28;20353;-79
2023/03/18 11:07:03;;;;;;;11.60;7.88;;;;;;;;;;5057447;28;20025;-79
2023/03/18 11:09:35;;;;;;;8.88;6.50;;;333.70;2022.40;;;;;;5058719;28;20948;-79
2023/03/18 11:12:06;;;;;;;6.47;4.27;;;358.50;2022.40;;;;;;5066958;28;20040;-78
2023/03/18 11:14:36;;;;;;;12.15;7.30;;;358.40;1971.20;;;;;;5059656;28;20029;-78
2023/03/18 11:17:04;;;;;;;11.13;9.07;;;333.70;2048.00;;;;;;5070469;28;20203;-78
2023/03/18 11:19:40;;;;;;;9.40;6.50;;;358.50;1996.80;;;;;;5061088;28;20025;-79
2023/03/18 11:22:09;;;;;;;8.95;5.38;;;359.00;1945.60;;;;;;5061565;28;20044;-79
2023/03/18 11:24:42;;;;;;;9.68;5.35;;;;;;;;;;5069748;28;20020;-77
2023/03/18 11:27:15;;;;;;;5.53;4.03;;;;;;;;;;5041705;28;20017;-76
2023/03/18 11:29:49;;;;;;;7.82;4.95;;;;;;;;;;5064610;28;20094;-78
2023/03/18 11:32:35;;;;;;;6.45;4.97;;;;;;;;;;5053759;28;20075;-77
2023/03/18 11:35:03;;;;;;;8.52;5.22;;;;;;;;;;5053588;28;20032;-76
2023/03/18 11:37:31;;;;;;;8.30;5.57;;;;;;;;;;5053769;28;20083;-76
2023/03/18 11:40:06;;;;;;;8.88;6.03;;;;;;;;;;5054690;28;20017;-77
2023/03/18 11:42:33;;;;;;;10.98;6.55;;;;;;;;;;5053600;28;20029;-76
2023/03/18 11:45:01;;;;;;;9.60;5.05;;;;;;;;;;5053638;28;20376;-77
2023/03/18 11:47:29;;;;;;;10.63;6.82;;;;;;;;;;5053680;28;20111;-76
2023/03/18 11:49:56;;;;;;;13.63;8.73;;;;;;;;;;5047425;28;20022;-77
2023/03/18 11:52:33;;;;;;;13.77;9.38;;;;;;;;;;5032717;28;20025;-77
2023/03/18 11:55:06;;;;;;;12.65;7.63;;;;;;;;;;5032231;28;20029;-75
2023/03/18 11:58:20;;;;;;;8.43;5.60;;;409.70;1894.40;;;;;;5032814;28;20220;-75
2023/03/18 12:01:25;;;;;;;7.25;5.10;;;409.70;1868.80;;;;;;5041641;28;20029;-75
2023/03/18 12:04:43;;;;;;;6.70;4.72;;;410.20;1868.80;;;;;;5053296;28;20136;-74
2023/03/18 12:07:36;;;;;;;8.52;5.25;;;;;;;;;;5044395;28;20044;-75
2023/03/18 12:10:22;;;;;;;7.97;5.40;;;;;;;;;;5054272;28;20049;-75
2023/03/18 12:12:52;;;;;;;12.50;7.68;;;;;;;;;;5053810;28;20108;-75
2023/03/18 12:15:37;;;;;;;13.10;8.63;;;;;;;;;;5054321;28;20048;-76
2023/03/18 12:18:19;;;;;;;15.88;8.10;;;;;;;;;;5053975;28;20029;-78
2023/03/18 12:20:49;;;;;;;13.27;7.57;;;;;;;;;;5054625;28;20051;-79
2023/03/18 12:23:18;;;;;;;10.85;6.75;;;;;;;;;;5053091;28;20427;-79
2023/03/18 12:25:47;;;;;;;9.88;7.07;;;;;;;;;;5053068;28;20605;-78